Terminal Aerodrome Forecast
Issued by NWS

Home | Current Version | Previous Version | Text Only | Print | Product List | Glossary On
Versions: 1 2 3 4 5 6 7 8 9 10 11 12 13 14
459
FTUS44 KLIX 281729
TAFGPT
TAF
KGPT 281729Z 2818/2918 05006KT P6SM SCT060 BKN250
     FM281930 09008KT P6SM VCSH SCT035 BKN120
      TEMPO 2820/2824 2SM TSRA BKN030CB BKN070
     FM290100 09006KT P6SM FEW025 BKN180
     FM290700 05008KT P6SM SCT180
     FM291600 09007KT P6SM SCT040 SCT150=

USA.gov is the U.S. government's official web portal to all federal, state and local government web resources and services.